createdAt,value
2018-12-25T00:04:00.839Z,1.50
2018-12-25T00:09:06.085Z,1.50
2018-12-25T00:14:09.370Z,1.50
2018-12-25T00:19:12.686Z,1.50
2018-12-25T00:24:16.149Z,1.60
2018-12-25T00:29:19.502Z,1.50
2018-12-25T00:34:22.769Z,1.50
2018-12-25T00:39:26.126Z,1.50
2018-12-25T00:44:29.386Z,1.50
2018-12-25T00:49:32.739Z,1.50
2018-12-25T00:54:36.050Z,1.50
2018-12-25T00:59:39.305Z,1.60
2018-12-25T01:04:42.626Z,1.50
2018-12-25T01:09:45.975Z,1.50
2018-12-25T01:14:49.239Z,1.50
2018-12-25T01:19:52.602Z,1.50
2018-12-25T01:24:55.969Z,1.50
2018-12-25T01:29:59.228Z,1.50
2018-12-25T01:35:02.497Z,1.50
2018-12-25T01:40:06.858Z,1.60
2018-12-25T01:45:10.175Z,1.60
2018-12-25T01:50:13.411Z,1.60
2018-12-25T01:55:16.677Z,1.60
2018-12-25T02:00:19.961Z,1.60
2018-12-25T02:05:23.390Z,1.50
2018-12-25T02:10:26.698Z,1.50
2018-12-25T02:15:30.015Z,1.50
2018-12-25T02:20:33.330Z,1.40
2018-12-25T02:25:36.649Z,1.40
2018-12-25T02:30:39.947Z,1.40
2018-12-25T02:35:43.261Z,1.40
2018-12-25T02:40:46.523Z,1.30
2018-12-25T02:45:49.902Z,1.30
2018-12-25T02:50:53.224Z,1.30
2018-12-25T02:55:56.477Z,1.30
2018-12-25T03:00:59.811Z,1.20
2018-12-25T03:06:03.070Z,1.20
2018-12-25T03:11:06.338Z,1.20
2018-12-25T03:16:09.703Z,1.20
2018-12-25T03:26:15.975Z,1.20
2018-12-25T03:31:19.320Z,1.30
2018-12-25T03:36:22.582Z,1.20
2018-12-25T03:41:25.881Z,1.20
2018-12-25T03:46:29.147Z,1.20
2018-12-25T03:51:32.411Z,1.30
2018-12-25T03:56:35.671Z,1.30
2018-12-25T04:01:39.018Z,1.20
2018-12-25T04:06:42.342Z,1.20
2018-12-25T04:11:45.619Z,1.30
2018-12-25T04:16:48.915Z,1.30
2018-12-25T04:21:52.198Z,1.30
2018-12-25T04:26:55.530Z,1.30
2018-12-25T04:31:58.793Z,1.20
2018-12-25T04:37:02.058Z,1.20
2018-12-25T04:42:05.390Z,1.30
2018-12-25T04:47:08.654Z,1.20
2018-12-25T04:52:11.995Z,1.20
2018-12-25T04:57:15.289Z,1.20
2018-12-25T05:02:18.545Z,1.20
2018-12-25T05:07:21.912Z,1.20
2018-12-25T05:12:25.235Z,1.20
2018-12-25T05:17:28.485Z,1.20
2018-12-25T05:22:31.828Z,1.20
2018-12-25T05:27:35.185Z,1.20
2018-12-25T05:32:38.446Z,1.30
2018-12-25T05:37:41.850Z,1.30
2018-12-25T05:42:45.071Z,1.30
2018-12-25T05:47:48.362Z,1.30
2018-12-25T05:52:51.633Z,1.30
2018-12-25T05:57:54.995Z,1.30
2018-12-25T06:02:58.255Z,1.30
2018-12-25T06:08:01.619Z,1.30
2018-12-25T06:13:04.882Z,1.30
2018-12-25T06:18:08.138Z,1.30
2018-12-25T06:23:11.399Z,1.30
2018-12-25T06:28:14.670Z,1.30
2018-12-25T06:33:17.949Z,1.30
2018-12-25T06:38:21.213Z,1.30
2018-12-25T06:43:24.575Z,1.30
2018-12-25T06:48:27.830Z,1.30
2018-12-25T06:53:31.186Z,1.30
2018-12-25T06:58:34.442Z,1.30
2018-12-25T07:03:37.802Z,1.30
2018-12-25T07:08:41.070Z,1.30
2018-12-25T07:13:44.425Z,1.30
2018-12-25T07:18:47.730Z,1.30
2018-12-25T07:23:51.042Z,1.30
2018-12-25T07:28:54.355Z,1.30
2018-12-25T07:33:57.661Z,1.30
2018-12-25T07:39:00.967Z,1.30
2018-12-25T07:44:04.281Z,1.30
2018-12-25T07:49:07.543Z,1.30
2018-12-25T07:54:10.897Z,1.40
2018-12-25T07:59:14.290Z,1.40
2018-12-25T08:04:18.031Z,1.40
2018-12-25T08:09:21.337Z,1.40
2018-12-25T08:14:24.654Z,1.40
2018-12-25T08:19:27.961Z,1.50
2018-12-25T08:24:31.269Z,1.40
2018-12-25T08:29:34.669Z,1.50
2018-12-25T08:34:37.986Z,1.50
2018-12-25T08:39:41.374Z,1.60
2018-12-25T08:49:43.664Z,1.60
2018-12-25T08:54:47.232Z,1.70
2018-12-25T08:59:50.721Z,1.70
2018-12-25T09:04:54.040Z,1.70
2018-12-25T09:09:57.503Z,1.60
2018-12-25T09:15:00.967Z,1.70
2018-12-25T09:20:04.788Z,1.80
2018-12-25T09:25:08.260Z,1.80
2018-12-25T09:30:11.609Z,1.70
2018-12-25T09:35:14.957Z,1.90
2018-12-25T09:40:18.296Z,1.90
2018-12-25T09:45:22.636Z,1.90
2018-12-25T09:50:26.144Z,1.90
2018-12-25T09:55:29.667Z,1.80
2018-12-25T10:00:33.098Z,1.80
2018-12-25T10:05:36.472Z,1.90
2018-12-25T10:10:39.887Z,1.90
2018-12-25T10:15:43.381Z,1.90
2018-12-25T10:20:46.800Z,2.00
2018-12-25T10:25:50.225Z,2.00
2018-12-25T10:30:53.754Z,2.00
2018-12-25T10:35:57.274Z,2.00
2018-12-25T10:41:00.785Z,2.10
2018-12-25T10:46:04.273Z,2.10
2018-12-25T10:51:07.769Z,2.20
2018-12-25T10:56:11.402Z,2.30
2018-12-25T11:01:20.247Z,2.40
2018-12-25T11:06:23.737Z,2.30
2018-12-25T11:11:27.188Z,2.30
2018-12-25T11:16:30.623Z,2.40
2018-12-25T11:21:33.945Z,2.40
2018-12-25T11:26:37.444Z,2.40
2018-12-25T11:31:40.809Z,2.40
2018-12-25T11:36:44.384Z,2.40
2018-12-25T11:41:47.711Z,2.40
2018-12-25T11:46:51.038Z,2.40
2018-12-25T11:51:54.548Z,2.40
2018-12-25T11:56:57.965Z,2.40
2018-12-25T12:02:01.294Z,2.50
2018-12-25T12:07:04.746Z,2.60
2018-12-25T12:12:08.097Z,2.50
2018-12-25T12:17:11.571Z,2.60
2018-12-25T12:22:15.043Z,2.60
2018-12-25T12:27:18.483Z,2.70
2018-12-25T12:32:21.903Z,2.80
2018-12-25T12:37:25.516Z,2.80
2018-12-25T12:42:28.947Z,2.70
2018-12-25T12:47:32.358Z,2.70
2018-12-25T12:52:35.819Z,2.70
2018-12-25T12:57:39.252Z,2.80
2018-12-25T13:02:42.688Z,2.70
2018-12-25T13:07:46.118Z,2.80
2018-12-25T13:12:49.567Z,2.70
2018-12-25T13:17:53.088Z,2.80
2018-12-25T13:22:56.671Z,2.80
2018-12-25T13:28:00.148Z,2.70
2018-12-25T13:33:03.677Z,2.70
2018-12-25T13:38:07.112Z,2.70
2018-12-25T13:43:10.523Z,2.70
2018-12-25T13:48:14.060Z,2.70
2018-12-25T13:53:17.534Z,2.70
2018-12-25T13:58:21.116Z,2.80
2018-12-25T14:03:24.594Z,2.80
2018-12-25T14:08:28.060Z,2.80
2018-12-25T14:13:31.547Z,2.80
2018-12-25T14:18:35.096Z,2.80
2018-12-25T14:23:38.618Z,2.80
2018-12-25T14:28:42.191Z,2.70
2018-12-25T14:33:45.906Z,2.70
2018-12-25T14:38:50.324Z,2.80
2018-12-25T14:43:53.940Z,2.70
2018-12-25T14:48:57.483Z,2.70
2018-12-25T14:54:01.067Z,2.60
2018-12-25T14:59:04.559Z,2.60
2018-12-25T15:04:08.060Z,2.60
2018-12-25T15:09:11.548Z,2.60
2018-12-25T15:14:15.011Z,2.50
2018-12-25T15:19:18.436Z,2.50
2018-12-25T15:24:21.946Z,2.50
2018-12-25T15:29:25.482Z,2.50
2018-12-25T15:34:28.915Z,2.50
2018-12-25T15:39:32.492Z,2.50
2018-12-25T15:44:35.904Z,2.50
2018-12-25T15:49:39.496Z,2.40
2018-12-25T15:54:42.899Z,2.40
2018-12-25T15:59:46.358Z,2.40
2018-12-25T16:04:50.000Z,2.40
2018-12-25T16:09:55.727Z,2.40
2018-12-25T16:14:59.076Z,2.30
2018-12-25T16:20:02.519Z,2.30
2018-12-25T16:25:06.021Z,2.30
2018-12-25T16:30:09.778Z,2.30
2018-12-25T16:35:13.343Z,2.30
2018-12-25T16:40:16.839Z,2.20
2018-12-25T16:45:20.319Z,2.20
2018-12-25T16:50:23.853Z,2.30
2018-12-25T16:55:27.386Z,2.30
2018-12-25T17:05:46.434Z,2.30
2018-12-25T17:10:49.923Z,2.30
2018-12-25T17:15:53.495Z,2.30
2018-12-25T17:20:57.044Z,2.30
2018-12-25T17:26:00.659Z,2.30
2018-12-25T17:31:04.373Z,2.20
2018-12-25T17:36:07.893Z,2.10
2018-12-25T17:41:11.391Z,2.10
2018-12-25T17:46:16.073Z,2.10
2018-12-25T17:51:19.631Z,2.10
2018-12-25T17:56:23.248Z,2.00
2018-12-25T18:01:26.757Z,2.10
2018-12-25T18:06:30.341Z,2.10
2018-12-25T18:11:33.771Z,2.10
2018-12-25T18:16:37.296Z,2.10
2018-12-25T18:21:40.951Z,2.10
2018-12-25T18:26:44.506Z,2.10
2018-12-25T18:31:48.249Z,2.10
2018-12-25T18:36:51.766Z,2.10
2018-12-25T18:41:55.284Z,2.00
2018-12-25T18:46:58.896Z,2.10
2018-12-25T18:52:02.411Z,2.00
2018-12-25T18:57:06.205Z,2.00
2018-12-25T19:02:09.868Z,2.00
2018-12-25T19:07:13.471Z,2.00
2018-12-25T19:12:17.053Z,2.00
2018-12-25T19:17:20.580Z,2.00
2018-12-25T19:22:24.167Z,2.00
2018-12-25T19:27:27.572Z,2.00
2018-12-25T19:32:31.131Z,2.00
2018-12-25T19:37:34.558Z,2.00
2018-12-25T19:42:38.100Z,2.00
2018-12-25T19:47:41.645Z,2.00
2018-12-25T19:52:45.204Z,2.00
2018-12-25T19:57:48.756Z,2.00
2018-12-25T20:03:00.697Z,2.00
2018-12-25T20:10:20.391Z,2.00
2018-12-25T20:15:35.751Z,2.00
2018-12-25T20:20:54.556Z,2.00
2018-12-25T20:29:15.113Z,2.10
2018-12-25T20:34:31.488Z,2.10
2018-12-25T20:39:53.051Z,2.10
2018-12-25T20:49:11.691Z,2.10
2018-12-25T20:54:25.814Z,2.10
2018-12-25T20:59:44.365Z,2.10
2018-12-25T21:04:59.124Z,2.10
2018-12-25T21:12:15.932Z,2.10
2018-12-25T21:17:45.200Z,2.10
2018-12-25T21:23:00.467Z,2.00
2018-12-25T21:28:02.844Z,2.10
2018-12-25T21:33:06.497Z,2.00
2018-12-25T21:38:10.035Z,2.00
2018-12-25T21:43:13.511Z,2.00
2018-12-25T21:48:17.039Z,2.00
2018-12-25T21:53:20.477Z,1.90
2018-12-25T21:58:23.940Z,1.90
2018-12-25T22:03:27.460Z,1.90
2018-12-25T22:08:30.879Z,1.80
2018-12-25T22:13:34.287Z,1.80
2018-12-25T22:18:37.713Z,1.80
2018-12-25T22:23:46.750Z,1.80
2018-12-25T22:28:51.170Z,1.80
2018-12-25T22:33:54.841Z,1.80
2018-12-25T22:38:59.455Z,1.70
2018-12-25T22:44:03.882Z,1.70
2018-12-25T22:49:08.533Z,1.70
2018-12-25T22:54:13.779Z,1.70
2018-12-25T22:59:17.229Z,1.70
2018-12-25T23:04:20.603Z,1.70
2018-12-25T23:09:25.603Z,1.70
2018-12-25T23:14:29.285Z,1.60
2018-12-25T23:19:33.332Z,1.60
2018-12-25T23:24:37.929Z,1.60
2018-12-25T23:29:43.964Z,1.60
2018-12-25T23:34:47.503Z,1.60
2018-12-25T23:39:50.831Z,1.60
2018-12-25T23:44:54.290Z,1.60
2018-12-25T23:49:57.722Z,1.60
2018-12-25T23:55:01.152Z,1.60
